Terminal Aerodrome Forecast
Issued by NWS

Home | Current Version | Previous Version | Text Only | Print | Product List | Glossary On
Versions: 1 2 3 4 5 6 7 8 9 10 11 12 13 14 15 16 17 18 19 20
519
FTUS43 KAPX 261412 AAA
TAFMBL
TAF AMD
KMBL 261412Z 2614/2712 28011KT P6SM BKN025 OVC035
     FM261500 28010G21KT P6SM OVC025
     FM261800 27012G22KT P6SM VCSH SCT015 OVC030
     FM262000 30011G22KT P6SM VCSH SCT015 OVC025
     FM270000 33007KT P6SM OVC025
     FM270200 32004KT P6SM BKN050
     FM270400 32004KT P6SM SCT080=

USA.gov is the U.S. government's official web portal to all federal, state and local government web resources and services.